createdAt,value
2023-04-21T00:00:32.868Z,93.65
2023-04-21T00:01:32.864Z,93.65
2023-04-21T00:02:33.985Z,93.55
2023-04-21T00:03:33.101Z,93.55
2023-04-21T00:04:33.001Z,93.44
2023-04-21T00:05:32.975Z,93.44
2023-04-21T00:06:32.804Z,93.55
2023-04-21T00:07:32.790Z,93.65
2023-04-21T00:08:32.778Z,93.70
2023-04-21T00:09:32.786Z,93.70
2023-04-21T00:10:32.753Z,93.70
2023-04-21T00:11:32.740Z,93.80
2023-04-21T00:12:32.729Z,93.80
2023-04-21T00:13:32.722Z,93.80
2023-04-21T00:14:32.723Z,93.80
2023-04-21T00:15:32.706Z,93.80
2023-04-21T00:16:32.819Z,93.80
2023-04-21T00:17:32.711Z,93.80
2023-04-21T00:18:32.669Z,93.80
2023-04-21T00:19:32.677Z,94.01
2023-04-21T00:20:32.694Z,94.11
2023-04-21T00:21:32.628Z,94.11
2023-04-21T00:22:32.621Z,94.01
2023-04-21T00:23:32.604Z,94.01
2023-04-21T00:24:32.605Z,93.90
2023-04-21T00:25:32.598Z,93.80
2023-04-21T00:26:32.609Z,94.11
2023-04-21T00:27:32.564Z,94.21
2023-04-21T00:28:32.562Z,94.31
2023-04-21T00:29:32.560Z,94.42
2023-04-21T00:30:33.368Z,94.31
2023-04-21T00:31:32.562Z,94.31
2023-04-21T00:32:32.560Z,94.21
2023-04-21T00:33:32.510Z,94.21
2023-04-21T00:34:32.503Z,94.21
2023-04-21T00:35:32.508Z,94.21
2023-04-21T00:36:32.480Z,94.11
2023-04-21T00:37:32.483Z,94.11
2023-04-21T00:38:32.447Z,94.01
2023-04-21T00:39:32.438Z,94.01
2023-04-21T00:40:32.446Z,94.01
2023-04-21T00:41:32.426Z,93.95
2023-04-21T00:42:32.398Z,94.05
2023-04-21T00:43:32.396Z,94.26
2023-04-21T00:44:32.376Z,94.26
2023-04-21T00:45:32.380Z,94.26
2023-04-21T00:46:32.367Z,94.15
2023-04-21T00:47:32.352Z,94.05
2023-04-21T00:48:32.370Z,94.36
2023-04-21T00:49:32.322Z,94.56
2023-04-21T00:50:32.329Z,94.46
2023-04-21T00:51:32.325Z,94.46
2023-04-21T00:52:32.291Z,94.56
2023-04-21T00:53:32.272Z,94.56
2023-04-21T00:54:32.262Z,94.67
2023-04-21T00:55:32.260Z,94.56
2023-04-21T00:56:32.251Z,94.46
2023-04-21T00:57:32.232Z,94.46
2023-04-21T00:58:32.216Z,94.46
2023-04-21T00:59:32.212Z,94.67
2023-04-21T01:00:32.277Z,94.56
2023-04-21T01:01:32.196Z,94.46
2023-04-21T01:02:32.249Z,94.36
2023-04-21T01:03:32.402Z,94.36
2023-04-21T01:04:32.150Z,94.46
2023-04-21T01:05:32.161Z,94.56
2023-04-21T01:06:32.135Z,94.67
2023-04-21T01:07:32.133Z,94.67
2023-04-21T01:08:32.113Z,94.67
2023-04-21T01:09:32.113Z,94.56
2023-04-21T01:10:32.109Z,94.67
2023-04-21T01:11:32.092Z,94.67
2023-04-21T01:12:32.074Z,94.56
2023-04-21T01:13:32.053Z,94.46
2023-04-21T01:14:32.052Z,94.31
2023-04-21T01:15:32.050Z,94.11
2023-04-21T01:16:32.070Z,94.11
2023-04-21T01:17:32.037Z,94.01
2023-04-21T01:18:32.002Z,93.90
2023-04-21T01:19:31.987Z,93.90
2023-04-21T01:20:31.993Z,93.80
2023-04-21T01:21:31.983Z,93.70
2023-04-21T01:22:31.960Z,93.70
2023-04-21T01:23:31.946Z,93.59
2023-04-21T01:24:31.933Z,93.59
2023-04-21T01:25:31.934Z,93.70
2023-04-21T01:26:31.911Z,93.80
2023-04-21T01:27:31.904Z,93.70
2023-04-21T01:28:31.885Z,93.80
2023-04-21T01:29:31.873Z,93.90
2023-04-21T01:30:31.891Z,93.90
2023-04-21T01:31:31.891Z,93.95
2023-04-21T01:32:32.044Z,94.05
2023-04-21T01:33:31.837Z,94.15
2023-04-21T01:34:31.823Z,94.01
2023-04-21T01:35:31.831Z,94.05
2023-04-21T01:36:31.792Z,94.15
2023-04-21T01:37:31.804Z,94.15
2023-04-21T01:38:31.778Z,94.05
2023-04-21T01:39:31.788Z,94.05
2023-04-21T01:40:31.781Z,93.95
2023-04-21T01:41:31.746Z,93.95
2023-04-21T01:42:31.732Z,93.84
2023-04-21T01:43:31.732Z,93.84
2023-04-21T01:44:31.713Z,94.05
2023-04-21T01:45:31.731Z,94.15
2023-04-21T01:46:31.732Z,94.15
2023-04-21T01:47:31.701Z,94.15
2023-04-21T01:48:31.683Z,94.26
2023-04-21T01:49:31.661Z,94.46
2023-04-21T01:50:31.663Z,94.56
2023-04-21T01:51:31.634Z,94.46
2023-04-21T01:52:31.621Z,94.46
2023-04-21T01:53:31.620Z,94.46
2023-04-21T01:54:31.603Z,94.46
2023-04-21T01:55:31.616Z,94.56
2023-04-21T01:56:31.627Z,94.46
2023-04-21T01:57:31.572Z,94.26
2023-04-21T01:58:31.553Z,94.05
2023-04-21T01:59:31.549Z,94.05
2023-04-21T02:00:31.552Z,94.05
2023-04-21T02:01:31.569Z,93.95
2023-04-21T02:02:31.667Z,94.05
2023-04-21T02:03:31.723Z,94.05
2023-04-21T02:04:31.632Z,94.05
2023-04-21T02:05:31.501Z,94.05
2023-04-21T02:06:31.471Z,94.15
2023-04-21T02:07:31.464Z,94.15
2023-04-21T02:08:31.447Z,94.15
2023-04-21T02:09:31.448Z,94.36
2023-04-21T02:10:31.445Z,94.56
2023-04-21T02:11:31.418Z,94.46
2023-04-21T02:12:31.400Z,94.56
2023-04-21T02:13:31.393Z,94.56
2023-04-21T02:14:31.389Z,94.46
2023-04-21T02:15:31.408Z,94.36
2023-04-21T02:16:31.451Z,94.26
2023-04-21T02:17:31.382Z,94.15
2023-04-21T02:18:31.336Z,94.05
2023-04-21T02:19:31.335Z,94.05
2023-04-21T02:20:31.335Z,94.15
2023-04-21T02:21:31.303Z,94.15
2023-04-21T02:22:31.302Z,94.15
2023-04-21T02:23:31.290Z,94.26
2023-04-21T02:24:31.270Z,94.36
2023-04-21T02:25:31.275Z,94.36
2023-04-21T02:26:31.252Z,94.36
2023-04-21T02:27:31.237Z,94.30
2023-04-21T02:28:31.225Z,94.30
2023-04-21T02:29:31.215Z,94.40
2023-04-21T02:30:31.214Z,94.51
2023-04-21T02:31:31.226Z,94.51
2023-04-21T02:32:31.276Z,94.51
2023-04-21T02:33:31.236Z,94.40
2023-04-21T02:34:31.151Z,94.30
2023-04-21T02:35:31.157Z,94.30
2023-04-21T02:36:31.164Z,94.40
2023-04-21T02:37:31.120Z,94.60
2023-04-21T02:38:31.113Z,94.51
2023-04-21T02:39:31.105Z,94.51
2023-04-21T02:40:31.108Z,94.51
2023-04-21T02:41:31.070Z,94.60
2023-04-21T02:42:31.066Z,94.71
2023-04-21T02:43:31.051Z,94.71
2023-04-21T02:44:31.060Z,94.71
2023-04-21T02:45:31.054Z,94.81
2023-04-21T02:46:31.068Z,94.92
2023-04-21T02:47:31.039Z,94.92
2023-04-21T02:48:31.062Z,94.92
2023-04-21T02:49:30.994Z,94.92
2023-04-21T02:50:30.998Z,94.81
2023-04-21T02:51:30.973Z,94.85
2023-04-21T02:52:30.956Z,94.96
2023-04-21T02:53:30.956Z,95.12
2023-04-21T02:54:30.931Z,95.23
2023-04-21T02:55:30.941Z,95.23
2023-04-21T02:56:30.910Z,95.02
2023-04-21T02:57:30.891Z,94.92
2023-04-21T02:58:30.879Z,94.92
2023-04-21T02:59:30.883Z,94.81
2023-04-21T03:00:30.909Z,94.81
2023-04-21T03:01:30.858Z,94.60
2023-04-21T03:02:30.935Z,94.67
2023-04-21T03:03:30.969Z,94.56
2023-04-21T03:04:30.866Z,94.56
2023-04-21T03:05:30.819Z,94.46
2023-04-21T03:06:30.807Z,94.46
2023-04-21T03:07:30.787Z,94.46
2023-04-21T03:08:30.774Z,94.36
2023-04-21T03:09:30.780Z,94.26
2023-04-21T03:10:30.767Z,94.15
2023-04-21T03:11:30.760Z,94.15
2023-04-21T03:12:30.729Z,94.15
2023-04-21T03:13:30.723Z,94.05
2023-04-21T03:14:30.705Z,94.05
2023-04-21T03:15:30.709Z,94.05
2023-04-21T03:16:30.713Z,94.26
2023-04-21T03:17:33.013Z,94.26
2023-04-21T03:18:30.655Z,94.26
2023-04-21T03:19:30.652Z,94.26
2023-04-21T03:20:30.668Z,94.26
2023-04-21T03:21:30.631Z,94.26
2023-04-21T03:22:30.615Z,94.26
2023-04-21T03:23:30.623Z,94.36
2023-04-21T03:24:30.596Z,94.26
2023-04-21T03:25:30.592Z,94.30
2023-04-21T03:26:30.602Z,94.40
2023-04-21T03:27:30.568Z,94.40
2023-04-21T03:28:30.562Z,94.30
2023-04-21T03:29:30.545Z,94.20
2023-04-21T03:30:30.530Z,94.09
2023-04-21T03:31:30.547Z,94.09
2023-04-21T03:32:30.530Z,94.09
2023-04-21T03:33:30.520Z,94.20
2023-04-21T03:34:30.488Z,94.51
2023-04-21T03:35:30.474Z,94.51
2023-04-21T03:36:30.469Z,94.71
2023-04-21T03:37:30.488Z,94.71
2023-04-21T03:38:30.441Z,94.71
2023-04-21T03:39:30.430Z,94.51
2023-04-21T03:40:30.426Z,94.40
2023-04-21T03:41:30.417Z,94.40
2023-04-21T03:42:30.403Z,94.30
2023-04-21T03:43:30.403Z,94.30
2023-04-21T03:44:30.378Z,94.20
2023-04-21T03:45:30.373Z,94.20
2023-04-21T03:46:30.382Z,94.09
2023-04-21T03:47:30.393Z,94.09
2023-04-21T03:48:30.380Z,94.09
2023-04-21T03:49:30.328Z,94.09
2023-04-21T03:50:30.315Z,94.20
2023-04-21T03:51:30.295Z,94.20
2023-04-21T03:52:30.283Z,94.20
2023-04-21T03:53:30.289Z,94.20
2023-04-21T03:54:30.281Z,94.09
2023-04-21T03:55:30.245Z,94.20
2023-04-21T03:56:30.244Z,94.20
2023-04-21T03:57:30.233Z,94.40
2023-04-21T03:58:30.221Z,94.40
2023-04-21T03:59:30.210Z,94.40
2023-04-21T04:00:30.214Z,94.51
2023-04-21T04:01:30.189Z,94.40
2023-04-21T04:02:30.263Z,94.30
2023-04-21T04:03:30.327Z,94.20
2023-04-21T04:04:30.233Z,94.09
2023-04-21T04:05:30.187Z,94.09
2023-04-21T04:06:30.139Z,94.30
2023-04-21T04:07:30.123Z,94.34
2023-04-21T04:08:30.107Z,94.51
2023-04-21T04:09:30.093Z,94.51
2023-04-21T04:10:30.094Z,94.51
2023-04-21T04:11:30.088Z,94.40
2023-04-21T04:12:30.064Z,94.30
2023-04-21T04:13:30.055Z,94.20
2023-04-21T04:14:30.038Z,94.09
2023-04-21T04:15:30.036Z,94.09
2023-04-21T04:16:30.157Z,94.09
2023-04-21T04:17:30.033Z,94.30
2023-04-21T04:18:29.996Z,94.30
2023-04-21T04:19:29.985Z,94.30
2023-04-21T04:20:29.976Z,94.20
2023-04-21T04:21:29.976Z,94.20
2023-04-21T04:22:29.948Z,94.09
2023-04-21T04:23:29.944Z,94.09
2023-04-21T04:24:29.934Z,94.30
2023-04-21T04:25:29.917Z,94.20
2023-04-21T04:26:29.932Z,94.09
2023-04-21T04:27:29.902Z,94.09
2023-04-21T04:28:29.885Z,94.20
2023-04-21T04:29:29.872Z,94.20
2023-04-21T04:30:29.862Z,94.20
2023-04-21T04:31:29.906Z,93.99
2023-04-21T04:32:29.870Z,93.88
2023-04-21T04:33:29.835Z,93.79
2023-04-21T04:34:29.823Z,93.68
2023-04-21T04:35:29.811Z,93.58
2023-04-21T04:36:29.819Z,93.58
2023-04-21T04:37:29.790Z,93.58
2023-04-21T04:38:29.772Z,93.68
2023-04-21T04:39:29.801Z,93.68
2023-04-21T04:40:29.751Z,93.68
2023-04-21T04:41:29.752Z,93.68
2023-04-21T04:42:29.729Z,93.54
2023-04-21T04:43:29.716Z,93.54
2023-04-21T04:44:29.694Z,93.54
2023-04-21T04:45:29.692Z,93.43
2023-04-21T04:46:29.713Z,93.33
2023-04-21T04:47:29.731Z,93.23
2023-04-21T04:48:29.704Z,93.23
2023-04-21T04:49:29.647Z,93.23
2023-04-21T04:50:29.636Z,93.23
2023-04-21T04:51:29.660Z,93.12
2023-04-21T04:52:29.618Z,93.12
2023-04-21T04:53:29.604Z,93.02
2023-04-21T04:54:29.595Z,92.92
2023-04-21T04:55:29.593Z,92.87
2023-04-21T04:56:29.592Z,92.67
2023-04-21T04:57:29.575Z,92.67
2023-04-21T04:58:29.552Z,92.57
2023-04-21T04:59:30.279Z,92.77
2023-04-21T05:00:29.540Z,92.77
2023-04-21T05:01:29.592Z,92.77
2023-04-21T05:02:29.630Z,92.77
2023-04-21T05:03:29.714Z,92.87
2023-04-21T05:04:29.663Z,92.97
2023-04-21T05:05:29.491Z,92.97
2023-04-21T05:06:29.468Z,92.87
2023-04-21T05:07:29.458Z,92.77
2023-04-21T05:08:29.454Z,92.77
2023-04-21T05:09:29.451Z,92.77
2023-04-21T05:10:29.437Z,92.77
2023-04-21T05:11:29.425Z,92.97
2023-04-21T05:12:29.396Z,93.08
2023-04-21T05:13:29.386Z,93.08
2023-04-21T05:14:29.381Z,93.08
2023-04-21T05:15:29.360Z,92.97
2023-04-21T05:16:29.390Z,92.87
2023-04-21T05:17:29.365Z,92.87
2023-04-21T05:18:29.329Z,93.08
2023-04-21T05:19:29.584Z,92.77
2023-04-21T05:20:29.312Z,92.52
2023-04-21T05:21:29.313Z,92.52
2023-04-21T05:22:29.283Z,92.42
2023-04-21T05:23:29.269Z,92.32
2023-04-21T05:24:29.268Z,92.21
2023-04-21T05:25:29.253Z,92.32
2023-04-21T05:26:29.280Z,92.21
2023-04-21T05:27:29.225Z,92.21
2023-04-21T05:28:29.219Z,92.11
2023-04-21T05:29:29.203Z,91.91
2023-04-21T05:30:29.191Z,91.91
2023-04-21T05:31:29.209Z,91.91
2023-04-21T05:33:24.878Z,91.86
2023-04-21T05:34:25.861Z,91.86
2023-04-21T05:35:25.859Z,91.66
2023-04-21T05:36:25.885Z,91.55
2023-04-21T05:37:25.858Z,91.55
2023-04-21T05:38:25.828Z,91.25
2023-04-21T05:39:25.836Z,91.10
2023-04-21T05:40:25.818Z,91.10
2023-04-21T05:41:25.821Z,90.89
2023-04-21T05:42:25.796Z,90.69
2023-04-21T05:43:25.781Z,90.28
2023-04-21T05:44:25.770Z,90.28
2023-04-21T05:45:25.745Z,90.24
2023-04-21T05:46:25.787Z,90.44
2023-04-21T05:47:25.791Z,90.34
2023-04-21T05:48:25.715Z,90.24
2023-04-21T05:49:25.725Z,90.14
2023-04-21T05:50:25.736Z,90.14
2023-04-21T05:51:25.753Z,90.14
2023-04-21T05:52:25.705Z,90.34
2023-04-21T05:53:25.737Z,90.65
2023-04-21T05:54:25.681Z,90.55
2023-04-21T05:55:25.677Z,90.75
2023-04-21T05:56:25.664Z,90.34
2023-04-21T05:57:25.651Z,90.24
2023-04-21T05:58:25.610Z,90.34
2023-04-21T05:59:25.629Z,90.34
2023-04-21T06:00:25.651Z,90.24
2023-04-21T06:01:25.586Z,90.44
2023-04-21T06:02:25.767Z,90.55
2023-04-21T06:03:25.759Z,90.65
2023-04-21T06:04:26.033Z,90.65
2023-04-21T06:05:25.598Z,90.75
2023-04-21T06:06:25.552Z,90.55
2023-04-21T06:07:25.524Z,90.50
2023-04-21T06:08:25.512Z,90.30
2023-04-21T06:09:25.477Z,89.69
2023-04-21T06:10:25.512Z,89.84
2023-04-21T06:11:25.488Z,89.43
2023-04-21T06:12:25.481Z,89.03
2023-04-21T06:13:25.476Z,89.03
2023-04-21T06:14:25.501Z,88.82
2023-04-21T06:15:25.460Z,89.03
2023-04-21T06:16:25.468Z,89.03
2023-04-21T06:17:25.496Z,88.82
2023-04-21T06:18:25.390Z,88.92
2023-04-21T06:19:25.399Z,89.03
2023-04-21T06:20:25.439Z,88.88
2023-04-21T06:21:25.442Z,88.78
2023-04-21T06:22:25.373Z,88.37
2023-04-21T06:23:25.348Z,88.12
2023-04-21T06:24:25.735Z,88.02
2023-04-21T06:25:25.353Z,87.92
2023-04-21T06:26:25.314Z,87.61
2023-04-21T06:27:25.322Z,87.37
2023-04-21T06:28:25.267Z,87.16
2023-04-21T06:29:25.271Z,87.26
2023-04-21T06:30:25.246Z,87.06
2023-04-21T06:31:25.279Z,87.06
2023-04-21T06:32:25.258Z,86.75
2023-04-21T06:33:25.240Z,86.61
2023-04-21T06:34:25.197Z,86.51
2023-04-21T06:35:25.256Z,85.69
2023-04-21T06:36:25.233Z,85.89
2023-04-21T06:37:25.217Z,86.10
2023-04-21T06:38:25.245Z,85.99
2023-04-21T06:39:25.141Z,85.34
2023-04-21T06:40:25.153Z,84.93
2023-04-21T06:41:25.154Z,85.24
2023-04-21T06:42:25.151Z,85.24
2023-04-21T06:43:25.128Z,85.34
2023-04-21T06:44:25.132Z,85.64
2023-04-21T06:45:25.101Z,85.55
2023-04-21T06:46:25.172Z,84.38
2023-04-21T06:47:25.179Z,85.10
2023-04-21T06:48:25.067Z,84.48
2023-04-21T06:49:25.083Z,84.38
2023-04-21T06:50:25.029Z,84.38
2023-04-21T06:51:25.058Z,84.58
2023-04-21T06:52:25.011Z,84.65
2023-04-21T06:53:25.027Z,83.62
2023-04-21T06:54:25.026Z,83.62
2023-04-21T06:55:24.960Z,84.24
2023-04-21T06:56:24.987Z,83.83
2023-04-21T06:57:24.959Z,83.83
2023-04-21T06:58:24.937Z,83.59
2023-04-21T06:59:24.960Z,83.28
2023-04-21T07:00:24.927Z,83.48
2023-04-21T07:01:25.025Z,83.48
2023-04-21T07:02:25.021Z,83.59
2023-04-21T07:03:25.063Z,83.48
2023-04-21T07:04:24.961Z,83.79
2023-04-21T07:05:24.874Z,84.00
2023-04-21T07:06:24.868Z,84.57
2023-04-21T07:07:24.837Z,84.26
2023-04-21T07:08:24.821Z,84.06
2023-04-21T07:09:24.856Z,83.54
2023-04-21T07:10:24.809Z,82.83
2023-04-21T07:11:24.835Z,82.49
2023-04-21T07:12:24.786Z,82.49
2023-04-21T07:13:24.789Z,81.73
2023-04-21T07:14:24.790Z,81.63
2023-04-21T07:15:24.768Z,81.43
2023-04-21T07:16:24.799Z,81.43
2023-04-21T07:17:24.754Z,81.12
2023-04-21T07:18:24.725Z,80.37
2023-04-21T07:19:24.737Z,80.16
2023-04-21T07:20:24.705Z,80.47
2023-04-21T07:21:24.705Z,80.88
2023-04-21T07:22:24.703Z,80.98
2023-04-21T07:23:24.671Z,80.47
2023-04-21T07:24:24.653Z,80.78
2023-04-21T07:25:24.647Z,80.88
2023-04-21T07:26:24.640Z,80.54
2023-04-21T07:27:24.726Z,79.72
2023-04-21T07:28:24.620Z,79.52
2023-04-21T07:29:24.632Z,79.21
2023-04-21T07:30:24.585Z,79.58
2023-04-21T07:31:24.647Z,79.58
2023-04-21T07:32:24.668Z,79.38
2023-04-21T07:33:24.582Z,79.58
2023-04-21T07:34:24.539Z,79.38
2023-04-21T07:35:24.552Z,79.89
2023-04-21T07:36:24.520Z,79.58
2023-04-21T07:37:24.921Z,79.07
2023-04-21T07:38:24.517Z,79.27
2023-04-21T07:39:24.500Z,79.34
2023-04-21T07:40:24.615Z,78.63
2023-04-21T07:41:24.494Z,79.95
2023-04-21T07:42:24.444Z,80.36
2023-04-21T07:43:24.475Z,79.50
2023-04-21T07:44:24.492Z,78.19
2023-04-21T07:45:24.456Z,78.39
2023-04-21T07:46:24.443Z,78.19
2023-04-21T07:47:24.543Z,76.65
2023-04-21T07:48:24.387Z,77.57
2023-04-21T07:49:24.378Z,78.39
2023-04-21T07:50:24.409Z,77.57
2023-04-21T07:51:24.336Z,76.96
2023-04-21T07:52:24.378Z,77.78
2023-04-21T07:53:24.336Z,78.35
2023-04-21T07:54:24.313Z,79.27
2023-04-21T07:55:24.325Z,77.33
2023-04-21T07:56:24.287Z,76.62
2023-04-21T07:57:24.274Z,76.72
2023-04-21T07:58:24.301Z,77.13
2023-04-21T07:59:24.272Z,75.46
2023-04-21T08:00:24.276Z,74.85
2023-04-21T08:01:24.245Z,76.18
2023-04-21T08:02:24.354Z,76.48
2023-04-21T08:03:24.689Z,76.34
2023-04-21T08:04:24.581Z,76.45
2023-04-21T08:05:25.310Z,74.82
2023-04-21T08:06:24.217Z,75.02
2023-04-21T08:07:24.177Z,74.52
2023-04-21T08:08:24.150Z,74.52
2023-04-21T08:09:24.148Z,75.23
2023-04-21T08:10:24.182Z,75.73
2023-04-21T08:11:45.144Z,76.25
2023-04-21T08:12:45.399Z,76.86
2023-04-21T08:13:45.131Z,76.31
2023-04-21T08:14:45.091Z,75.80
2023-04-21T08:15:24.102Z,75.80
2023-04-21T08:16:24.122Z,75.19
2023-04-21T08:17:24.122Z,75.36
2023-04-21T08:18:24.118Z,75.46
2023-04-21T08:19:24.062Z,76.48
2023-04-21T08:20:24.047Z,74.24
2023-04-21T08:21:24.033Z,74.44
2023-04-21T08:22:24.747Z,73.50
2023-04-21T08:23:24.036Z,74.01
2023-04-21T08:24:24.042Z,75.43
2023-04-21T08:25:23.969Z,73.80
2023-04-21T08:26:23.946Z,72.28
2023-04-21T08:27:23.959Z,72.08
2023-04-21T08:28:24.068Z,73.09
2023-04-21T08:29:23.935Z,71.73
2023-04-21T08:30:23.927Z,72.25
2023-04-21T08:31:23.987Z,70.92
2023-04-21T08:32:23.877Z,72.34
2023-04-21T08:33:23.885Z,71.80
2023-04-21T08:34:26.566Z,71.60
2023-04-21T08:35:23.913Z,70.89
2023-04-21T08:36:29.487Z,70.59
2023-04-21T08:37:23.839Z,69.78
2023-04-21T08:38:23.819Z,69.95
2023-04-21T08:39:23.805Z,71.37
2023-04-21T08:40:23.842Z,71.06
2023-04-21T08:41:23.780Z,71.37
2023-04-21T08:42:23.779Z,70.42
2023-04-21T08:43:23.770Z,70.01
2023-04-21T08:44:23.762Z,70.01
2023-04-21T08:45:23.927Z,72.24
2023-04-21T08:46:23.839Z,69.00
2023-04-21T08:47:23.739Z,69.41
2023-04-21T08:48:23.731Z,68.56
2023-04-21T08:49:23.706Z,67.85
2023-04-21T08:50:23.692Z,68.26
2023-04-21T08:51:23.750Z,68.87
2023-04-21T08:52:23.665Z,69.88
2023-04-21T08:53:23.655Z,69.88
2023-04-21T08:54:23.654Z,68.23
2023-04-21T08:55:23.623Z,71.16
2023-04-21T08:56:23.651Z,71.37
2023-04-21T08:57:23.624Z,68.02
2023-04-21T08:58:23.609Z,69.04
2023-04-21T08:59:23.618Z,69.34
2023-04-21T09:00:23.594Z,68.43
2023-04-21T09:01:23.640Z,67.72
2023-04-21T09:02:23.624Z,67.18
2023-04-21T09:03:26.087Z,67.49
2023-04-21T09:04:23.734Z,67.15
2023-04-21T09:05:23.711Z,67.05
2023-04-21T09:06:23.615Z,66.95
2023-04-21T09:07:23.490Z,67.55
2023-04-21T09:08:23.494Z,67.55
2023-04-21T09:09:23.484Z,67.35
2023-04-21T09:10:23.480Z,67.55
2023-04-21T09:11:23.521Z,67.96
2023-04-21T09:12:23.446Z,68.16
2023-04-21T09:13:23.434Z,65.84
2023-04-21T09:14:23.430Z,66.41
2023-04-21T09:15:23.441Z,65.91
2023-04-21T09:16:23.483Z,66.01
2023-04-21T09:17:23.437Z,66.61
2023-04-21T09:18:23.432Z,67.02
2023-04-21T09:19:23.367Z,68.03
2023-04-21T09:20:23.356Z,67.49
2023-04-21T09:21:23.369Z,66.48
2023-04-21T09:22:23.356Z,66.48
2023-04-21T09:23:23.322Z,65.98
2023-04-21T09:24:23.321Z,65.88
2023-04-21T09:25:23.317Z,64.67
2023-04-21T09:26:23.449Z,66.69
2023-04-21T09:27:23.276Z,66.89
2023-04-21T09:28:23.263Z,64.56
2023-04-21T09:29:23.266Z,64.23
2023-04-21T09:30:23.256Z,63.52
2023-04-21T09:31:23.316Z,64.03
2023-04-21T09:32:23.290Z,64.43
2023-04-21T09:33:29.504Z,63.93
2023-04-21T09:34:23.218Z,64.23
2023-04-21T09:35:23.202Z,65.51
2023-04-21T09:36:23.211Z,62.88
2023-04-21T09:37:23.185Z,62.68
2023-04-21T09:38:23.179Z,64.67
2023-04-21T09:39:40.042Z,63.36
2023-04-21T09:40:23.133Z,64.24
2023-04-21T09:41:23.131Z,64.34
2023-04-21T09:42:23.113Z,64.14
2023-04-21T09:43:23.108Z,64.75
2023-04-21T09:44:23.743Z,64.64
2023-04-21T09:45:39.075Z,60.71
2023-04-21T09:46:23.130Z,61.69
2023-04-21T09:47:23.091Z,63.90
2023-04-21T09:48:23.060Z,63.30
2023-04-21T09:49:23.064Z,62.60
2023-04-21T09:50:51.199Z,62.93
2023-04-21T09:51:36.888Z,63.03
2023-04-21T09:52:23.021Z,64.04
2023-04-21T09:53:23.000Z,63.53
2023-04-21T09:55:22.974Z,60.78
2023-04-21T09:56:22.994Z,63.50
2023-04-21T09:57:22.946Z,63.60
2023-04-21T09:58:22.928Z,64.01
2023-04-21T09:59:23.750Z,60.35
2023-04-21T10:00:22.898Z,59.34
2023-04-21T10:01:22.959Z,59.22
2023-04-21T10:02:23.137Z,60.93
2023-04-21T10:03:22.976Z,61.83
2023-04-21T10:04:23.364Z,59.72
2023-04-21T10:05:22.919Z,59.69
2023-04-21T10:06:22.899Z,60.89
2023-04-21T10:07:22.838Z,61.30
2023-04-21T10:08:22.826Z,60.80
2023-04-21T10:09:22.815Z,60.69
2023-04-21T10:10:22.803Z,59.19
2023-04-21T10:11:22.799Z,58.88
2023-04-21T10:12:22.783Z,59.89
2023-04-21T10:13:22.774Z,61.00
2023-04-21T10:14:22.927Z,59.39
2023-04-21T10:15:22.916Z,59.76
2023-04-21T10:16:22.806Z,58.25
2023-04-21T10:17:22.736Z,57.75
2023-04-21T10:18:22.707Z,57.75
2023-04-21T10:19:22.699Z,57.65
2023-04-21T10:20:22.683Z,58.33
2023-04-21T10:21:22.695Z,56.34
2023-04-21T10:22:22.674Z,56.44
2023-04-21T10:23:22.663Z,57.75
2023-04-21T10:24:22.678Z,58.35
2023-04-21T10:25:22.646Z,57.15
2023-04-21T10:26:22.649Z,57.45
2023-04-21T10:27:22.623Z,58.35
2023-04-21T10:28:22.623Z,60.13
2023-04-21T10:29:22.606Z,59.53
2023-04-21T10:30:22.684Z,57.92
2023-04-21T10:31:22.628Z,58.29
2023-04-21T10:32:22.592Z,57.19
2023-04-21T10:33:22.561Z,56.59
2023-04-21T10:34:22.860Z,57.52
2023-04-21T10:35:22.546Z,55.71
2023-04-21T10:36:22.536Z,56.09
2023-04-21T10:37:22.500Z,57.09
2023-04-21T10:38:22.498Z,58.40
2023-04-21T10:39:22.488Z,59.10
2023-04-21T10:40:32.974Z,57.37
2023-04-21T10:41:22.495Z,58.17
2023-04-21T10:42:22.447Z,54.55
2023-04-21T10:43:22.439Z,55.83
2023-04-21T10:44:22.547Z,56.74
2023-04-21T10:45:22.424Z,57.34
2023-04-21T10:46:22.497Z,56.23
2023-04-21T10:47:22.441Z,55.33
2023-04-21T10:48:22.384Z,55.23
2023-04-21T10:49:22.360Z,53.52
2023-04-21T10:50:22.356Z,53.14
2023-04-21T10:51:22.373Z,55.23
2023-04-21T10:52:22.323Z,54.72
2023-04-21T10:53:22.321Z,54.72
2023-04-21T10:54:22.420Z,54.33
2023-04-21T10:55:22.404Z,54.53
2023-04-21T10:56:22.374Z,52.42
2023-04-21T10:57:22.272Z,52.42
2023-04-21T10:58:22.261Z,54.20
2023-04-21T10:59:22.259Z,52.29
2023-04-21T11:00:22.234Z,55.40
2023-04-21T11:01:22.309Z,56.01
2023-04-21T11:02:22.474Z,55.40
2023-04-21T11:03:22.412Z,54.77
2023-04-21T11:04:23.184Z,55.18
2023-04-21T11:05:22.182Z,53.67
2023-04-21T11:06:22.195Z,54.55
2023-04-21T11:07:22.161Z,51.84
2023-04-21T11:08:22.184Z,53.12
2023-04-21T11:09:22.135Z,52.52
2023-04-21T11:10:22.133Z,53.02
2023-04-21T11:11:22.129Z,53.62
2023-04-21T11:12:22.106Z,53.62
2023-04-21T11:13:22.096Z,53.72
2023-04-21T11:14:22.157Z,54.82
2023-04-21T11:15:22.076Z,53.82
2023-04-21T11:16:22.132Z,50.42
2023-04-21T11:17:22.054Z,53.02
2023-04-21T11:18:22.030Z,50.92
2023-04-21T11:19:22.040Z,50.31
2023-04-21T11:20:22.014Z,49.81
2023-04-21T11:21:22.140Z,49.81
2023-04-21T11:22:22.020Z,50.69
2023-04-21T11:23:21.983Z,51.29
2023-04-21T11:24:22.075Z,51.59
2023-04-21T11:25:21.980Z,51.59
2023-04-21T11:26:21.958Z,52.07
2023-04-21T11:27:21.934Z,51.57
2023-04-21T11:28:21.923Z,50.07
2023-04-21T11:29:21.921Z,49.96
2023-04-21T11:30:21.905Z,49.94
2023-04-21T11:31:21.942Z,50.44
2023-04-21T11:32:21.888Z,49.76
2023-04-21T11:33:29.234Z,49.66
2023-04-21T11:34:22.091Z,51.07
2023-04-21T11:35:21.846Z,50.29
2023-04-21T11:36:21.843Z,48.38
2023-04-21T11:37:21.852Z,50.69
2023-04-21T11:38:21.874Z,51.89
2023-04-21T11:39:22.328Z,51.39
2023-04-21T11:40:21.782Z,50.46
2023-04-21T11:41:21.807Z,50.39
2023-04-21T11:42:21.766Z,51.69
2023-04-21T11:43:21.761Z,50.67
2023-04-21T11:44:21.738Z,51.37
2023-04-21T11:45:22.794Z,50.26
2023-04-21T11:46:21.762Z,51.84
2023-04-21T11:47:21.778Z,50.14
2023-04-21T11:48:21.705Z,50.64
2023-04-21T11:49:21.694Z,50.14
2023-04-21T11:50:21.686Z,49.44
2023-04-21T11:51:22.482Z,48.94
2023-04-21T11:52:21.691Z,51.44
2023-04-21T11:53:21.651Z,49.54
2023-04-21T11:54:21.642Z,52.52
2023-04-21T11:55:21.640Z,52.52
2023-04-21T11:56:21.631Z,50.52
2023-04-21T11:57:21.637Z,51.50
2023-04-21T11:58:21.622Z,49.19
2023-04-21T11:59:23.191Z,48.10
2023-04-21T12:00:21.587Z,47.61
2023-04-21T12:01:21.589Z,48.11
2023-04-21T12:02:23.092Z,47.61
2023-04-21T12:03:22.370Z,49.11
2023-04-21T12:04:21.600Z,50.29
2023-04-21T12:05:21.587Z,48.49
2023-04-21T12:06:21.563Z,50.39
2023-04-21T12:07:21.513Z,47.89
2023-04-21T12:08:21.479Z,48.11
2023-04-21T12:09:21.530Z,50.92
2023-04-21T12:10:21.523Z,48.22
2023-04-21T12:11:21.460Z,48.02
2023-04-21T12:12:21.458Z,47.42
2023-04-21T12:13:21.420Z,47.42
2023-04-21T12:14:21.425Z,46.92
2023-04-21T12:15:21.502Z,48.52
2023-04-21T12:16:21.502Z,48.11
2023-04-21T12:17:21.411Z,47.72
2023-04-21T12:18:21.394Z,47.52
2023-04-21T12:19:21.370Z,48.52
2023-04-21T12:20:21.366Z,48.11
2023-04-21T12:21:21.338Z,49.02
2023-04-21T12:22:21.342Z,45.72
2023-04-21T12:23:21.316Z,47.31
2023-04-21T12:24:21.313Z,47.69
2023-04-21T12:25:21.301Z,48.19
2023-04-21T12:26:21.298Z,48.49
2023-04-21T12:27:21.310Z,48.99
2023-04-21T12:28:21.322Z,47.30
2023-04-21T12:29:21.254Z,46.57
2023-04-21T12:30:21.298Z,46.77
2023-04-21T12:31:21.280Z,46.87
2023-04-21T12:32:21.257Z,47.97
2023-04-21T12:33:21.353Z,48.05
2023-04-21T12:34:21.198Z,47.27
2023-04-21T12:35:21.179Z,45.07
2023-04-21T12:36:21.179Z,46.97
2023-04-21T12:37:21.165Z,46.87
2023-04-21T12:38:21.167Z,44.78
2023-04-21T12:39:21.160Z,47.07
2023-04-21T12:40:21.144Z,45.97
2023-04-21T12:41:21.144Z,46.27
2023-04-21T12:42:21.129Z,46.57
2023-04-21T12:43:21.130Z,46.67
2023-04-21T12:44:21.095Z,49.47
2023-04-21T12:45:21.073Z,48.47
2023-04-21T12:46:21.297Z,47.47
2023-04-21T12:47:21.085Z,45.97
2023-04-21T12:48:21.068Z,46.50
2023-04-21T12:49:21.030Z,45.79
2023-04-21T12:50:21.031Z,46.30
2023-04-21T12:51:21.035Z,46.50
2023-04-21T12:52:21.023Z,47.09
2023-04-21T12:53:21.023Z,46.47
2023-04-21T12:54:20.978Z,46.27